Latest Weather Observations for Bourke

IDN60801

Issued at 9:04 pm EDT Thursday 5 March 2015 (issued every 30 minutes, with the page automatically refreshed every 10 minutes)

About weather observations | Map of weather stations | Latest weather observations for NSW | Other Formats
Station Details ID: 048245 Name: BOURKE AIRPORT AWS Lat: -30.04 Lon: 145.95 Height: 107.3 m
Data from the previous 72 hours. | See also: Recent months at Bourke
Date/Time
EDT
Temp
°C
App
Temp
°C
Dew
Point
Rel
Hum
%
Delta-T
°C
Wind Press
QNH
hPa
Press
MSL
hPa
Rain
since 9 am
mm
Dir
 
Spd
km/h
Gust
km/h
Spd
kts
Gust
kts
05/09:00pm 25.0 20.2 0.5 20 11.4 SSW 15 19 8 10 1012.7 1012.1 0.0
05/08:30pm 25.8 20.5 -0.3 18 12.1 SSW 17 24 9 13 1012.3 1011.7 0.0
05/08:00pm 26.6 20.8 -1.3 16 12.8 SSW 19 26 10 14 1011.7 1011.1 0.0
05/07:30pm 27.6 21.0 -0.5 16 13.1 SSW 24 32 13 17 1011.5 1010.9 0.0
05/07:00pm 28.6 22.5 0.3 16 13.5 S 22 30 12 16 1011.2 1010.6 0.0
05/06:30pm 29.6 23.6 1.1 16 13.9 SSW 22 32 12 17 1011.1 1010.5 0.0
05/06:00pm 29.7 24.1 3.6 19 13.3 SSW 22 37 12 20 1010.8 1010.2 0.0
05/05:30pm 29.9 24.2 3.0 18 13.6 SSW 22 33 12 18 1010.9 1010.3 0.0
05/05:00pm 30.1 25.0 4.0 19 13.4 SSW 20 30 11 16 1010.9 1010.3 0.0
05/04:30pm 30.7 24.5 4.4 19 13.7 SSW 26 35 14 19 1010.9 1010.3 0.0
05/04:00pm 30.3 24.4 4.1 19 13.5 S 24 35 13 19 1011.3 1010.7 0.0
05/03:30pm 30.0 24.2 4.6 20 13.2 SSW 24 35 13 19 1011.8 1011.2 0.0
05/03:00pm 30.2 24.2 5.5 21 13.0 S 26 35 14 19 1012.1 1011.5 0.0
05/02:30pm 30.4 24.5 5.6 21 13.1 SSW 26 41 14 22 1012.6 1012.0 0.0
05/02:00pm 30.1 25.4 6.1 22 12.8 SSW 20 30 11 16 1012.7 1012.1 0.0
05/01:30pm 28.6 23.5 6.1 24 11.9 SSW 22 33 12 18 1013.2 1012.6 0.0
05/01:00pm 28.2 22.9 6.9 26 11.4 SW 24 39 13 21 1013.8 1013.2 0.0
05/12:30pm 27.6 21.5 6.4 26 11.2 SSW 28 41 15 22 1014.3 1013.7 0.0
05/12:00pm 27.8 22.2 7.1 27 11.1 S 26 44 14 24 1014.6 1014.1 0.0
05/11:50am 26.8 20.7 6.8 28 10.6 SSW 28 46 15 25 1014.8 1014.3 0.0
05/11:30am 26.6 20.1 6.6 28 10.5 SSW 30 43 16 23 1014.9 1014.4 0.0
05/11:00am 26.3 20.6 4.7 25 11.0 S 24 35 13 19 1015.0 1014.5 0.0
05/10:30am 26.2 20.2 5.2 26 10.8 S 26 33 14 18 1014.9 1014.4 0.0
05/10:00am 26.0 19.1 4.5 25 10.9 SSW 30 39 16 21 1014.9 1014.4 0.0
05/09:30am 25.7 18.6 3.6 24 11.0 SSW 30 43 16 23 1014.5 1014.0 0.0
05/09:00am 25.9 19.4 2.6 22 11.4 S 26 35 14 19 1014.1 1013.5 0.0
05/08:30am 25.6 20.3 2.9 23 11.1 SSW 20 30 11 16 1013.7 1013.1 0.0
05/08:00am 25.0 19.6 2.4 23 10.9 SSW 20 26 11 14 1013.5 1012.9 0.0
05/07:30am 24.9 19.1 2.4 23 10.9 SSW 22 32 12 17 1013.1 1012.5 0.0
05/07:00am 25.1 19.7 2.5 23 11.0 SSW 20 32 11 17 1012.5 1011.9 0.0
05/06:30am 25.7 19.6 4.8 26 10.6 SSW 26 33 14 18 1011.8 1011.2 0.0
05/06:00am 25.9 22.0 7.0 30 10.0 SSW 17 24 9 13 1011.3 1010.7 0.0
05/05:30am 26.2 22.2 6.8 29 10.2 SSW 17 24 9 13 1010.8 1010.2 0.0
05/05:00am 26.6 22.6 6.6 28 10.5 SSW 17 24 9 13 1010.4 1009.8 0.0
05/04:30am 26.9 22.8 6.3 27 10.8 SSW 17 22 9 12 1010.3 1009.7 0.0
05/04:00am 27.3 23.6 6.1 26 11.1 SSW 15 19 8 10 1010.2 1009.6 0.0
05/03:30am 27.5 23.7 5.7 25 11.4 SSW 15 17 8 9 1010.3 1009.7 0.0
05/03:00am 27.6 24.6 5.8 25 11.4 SSW 11 13 6 7 1010.5 1009.9 0.0
05/02:30am 28.3 24.5 5.8 24 11.8 SSW 15 19 8 10 1010.7 1010.1 0.0
05/02:00am 28.7 25.2 5.5 23 12.1 SSW 13 15 7 8 1010.8 1010.2 0.0
05/01:30am 29.5 25.7 5.6 22 12.6 SSW 15 20 8 11 1011.0 1010.4 0.0
05/01:00am 30.1 25.6 6.1 22 12.8 SSW 19 30 10 16 1011.1 1010.5 0.0
05/12:30am 30.3 26.6 6.2 22 12.9 SSW 15 19 8 10 1010.9 1010.3 0.0
05/12:00am 30.9 27.3 6.7 22 13.1 SW 15 20 8 11 1010.8 1010.2 0.0
 
Date/Time
EDT
Temp
°C
App
Temp
°C
Dew
Point
Rel
Hum
%
Delta-T
°C
Wind Press
QNH
hPa
Press
MSL
hPa
Rain
since 9 am
mm
Dir
 
Spd
km/h
Gust
km/h
Spd
kts
Gust
kts
04/11:30pm 31.2 27.3 7.0 22 13.2 SW 17 22 9 12 1010.8 1010.2 0.0
04/11:00pm 31.2 28.0 7.0 22 13.2 WSW 13 20 7 11 1010.8 1010.2 0.0
04/10:30pm 32.0 28.5 7.0 21 13.7 WSW 15 20 8 11 1010.6 1010.0 0.0
04/10:00pm 32.5 28.5 6.7 20 14.1 WSW 17 22 9 12 1010.5 1009.9 0.0
04/09:30pm 33.2 29.2 6.5 19 14.6 WSW 17 26 9 14 1010.3 1009.7 0.0
04/09:00pm 33.9 29.8 6.3 18 15.1 WSW 17 26 9 14 1009.9 1009.3 0.0
04/08:30pm 34.5 30.3 5.9 17 15.5 WSW 17 24 9 13 1009.4 1008.9 0.0
04/08:00pm 35.3 30.9 4.8 15 16.4 WSW 17 30 9 16 1009.0 1008.5 0.0
04/07:30pm 36.2 32.1 4.5 14 17.0 SW 15 24 8 13 1008.8 1008.3 0.0
04/07:00pm 36.8 32.4 4.9 14 17.3 WSW 17 28 9 15 1008.7 1008.2 0.0
04/06:30pm 37.3 32.8 4.3 13 17.8 WSW 17 26 9 14 1008.6 1008.1 0.0
04/06:00pm 38.1 33.5 3.8 12 18.4 WSW 17 24 9 13 1008.6 1008.1 0.0
04/05:30pm 38.4 34.2 4.0 12 18.5 SW 15 22 8 12 1008.7 1008.2 0.0
04/05:00pm 38.2 33.6 3.8 12 18.5 SW 17 26 9 14 1008.8 1008.3 0.0
04/04:30pm 38.8 34.7 4.3 12 18.7 SW 15 28 8 15 1009.0 1008.5 0.0
04/04:00pm 38.9 33.8 3.1 11 19.1 SW 19 28 10 15 1009.6 1009.0 0.0
04/03:30pm 37.8 33.2 3.5 12 18.3 SW 17 32 9 17 1010.0 1009.4 0.0
04/03:00pm 37.2 32.5 3.1 12 18.0 SSW 17 28 9 15 1010.4 1009.8 0.0
04/02:30pm 37.7 33.8 3.4 12 18.2 WSW 13 20 7 11 1010.7 1010.1 0.0
04/02:00pm 37.1 32.6 4.1 13 17.7 SSW 17 24 9 13 1011.1 1010.5 0.0
04/01:30pm 36.1 32.0 2.2 12 17.5 S 13 22 7 12 1011.6 1011.0 0.0
04/01:00pm 37.0 33.0 2.9 12 17.9 SSW 13 26 7 14 1012.0 1011.4 0.0
04/12:30pm 35.7 30.6 0.7 11 17.6 S 17 24 9 13 1012.4 1011.8 0.0
04/12:00pm 35.6 31.0 1.8 12 17.3 SSW 15 26 8 14 1012.9 1012.3 0.0
04/11:30am 34.9 30.6 1.3 12 17.0 S 13 24 7 13 1013.2 1012.6 0.0
04/11:00am 34.0 28.7 1.7 13 16.4 S 19 28 10 15 1013.5 1012.9 0.0
04/10:30am 33.2 27.8 1.1 13 16.0 S 19 26 10 14 1013.7 1013.1 0.0
04/10:00am 32.0 25.6 1.2 14 15.3 S 24 30 13 16 1013.5 1012.9 0.0
04/09:30am 31.6 26.3 1.8 15 14.9 SSE 19 26 10 14 1013.3 1012.7 0.0
04/09:00am 29.8 24.1 0.4 15 14.2 SSE 20 30 11 16 1013.2 1012.6 0.0
04/08:30am 28.1 22.6 0.8 17 13.1 S 19 24 10 13 1012.9 1012.3 0.0
04/08:00am 27.3 22.2 0.9 18 12.6 SSW 17 24 9 13 1012.5 1011.9 0.0
04/07:30am 24.4 20.6 1.9 23 10.7 SW 11 13 6 7 1012.1 1011.5 0.0
04/07:00am 24.1 20.7 1.7 23 10.6 SW 9 11 5 6 1011.6 1011.0 0.0
04/06:30am 24.1 20.8 2.3 24 10.5 SSW 9 11 5 6 1011.2 1010.6 0.0
04/06:00am 23.4 20.4 2.3 25 10.1 SSW 7 9 4 5 1011.0 1010.4 0.0
04/05:30am 24.3 21.5 1.9 23 10.7 SSW 6 7 3 4 1010.7 1010.1 0.0
04/05:00am 25.9 22.6 2.6 22 11.4 SSW 9 11 5 6 1010.4 1009.8 0.0
04/04:30am 25.8 22.5 2.5 22 11.3 SSW 9 9 5 5 1010.3 1009.7 0.0
04/04:00am 26.4 23.4 2.3 21 11.8 S 7 9 4 5 1010.4 1009.8 0.0
04/03:30am 28.0 24.3 2.2 19 12.7 S 11 13 6 7 1010.6 1010.0 0.0
04/03:00am 28.4 24.4 2.6 19 12.8 SSW 13 17 7 9 1010.6 1010.0 0.0
04/02:30am 29.3 24.9 2.5 18 13.4 SSW 15 19 8 10 1010.8 1010.2 0.0
04/02:00am 29.5 25.1 2.7 18 13.4 SSW 15 17 8 9 1011.0 1010.4 0.0
04/01:30am 29.3 25.6 2.5 18 13.4 SSW 11 13 6 7 1011.2 1010.6 0.0
04/01:00am 29.8 25.8 2.9 18 13.6 SSW 13 15 7 8 1011.3 1010.7 0.0
04/12:30am 30.5 26.5 2.7 17 14.0 SSW 13 15 7 8 1011.2 1010.6 0.0
04/12:00am 31.8 27.1 2.9 16 14.8 SSW 17 22 9 12 1011.1 1010.5 0.0
 
Date/Time
EDT
Temp
°C
App
Temp
°C
Dew
Point
Rel
Hum
%
Delta-T
°C
Wind Press
QNH
hPa
Press
MSL
hPa
Rain
since 9 am
mm
Dir
 
Spd
km/h
Gust
km/h
Spd
kts
Gust
kts
03/11:30pm 31.3 27.6 4.2 18 14.1 SSW 13 17 7 9 1011.0 1010.4 0.0
03/11:00pm 31.9 28.1 3.8 17 14.6 SSW 13 17 7 9 1010.9 1010.3 0.0
03/10:30pm 33.1 28.9 3.9 16 15.3 SSW 15 20 8 11 1010.8 1010.2 0.0
03/10:00pm 34.0 29.8 3.7 15 15.9 SW 15 19 8 10 1010.5 1009.9 0.0
03/09:30pm 34.4 30.2 4.0 15 16.0 SW 15 19 8 10 1010.1 1009.5 0.0
03/09:00pm 35.5 30.7 4.9 15 16.5 SW 19 28 10 15 1009.8 1009.2 0.0
03/08:30pm 36.4 32.2 5.6 15 16.8 WSW 17 26 9 14 1009.2 1008.7 0.0
03/08:00pm 37.3 33.2 6.3 15 17.2 SW 17 26 9 14 1008.7 1008.2 0.0
03/07:30pm 38.6 33.6 6.3 14 18.0 WSW 22 30 12 16 1008.3 1007.8 0.0
03/07:00pm 39.7 34.9 7.2 14 18.5 SW 22 35 12 19 1008.0 1007.5 0.0
03/06:30pm 40.4 35.3 7.8 14 18.8 SW 24 41 13 22 1007.7 1007.2 0.0
03/06:00pm 41.1 36.7 7.2 13 19.4 WSW 20 32 11 17 1007.5 1007.0 0.0
03/05:30pm 42.2 38.5 8.1 13 19.9 WSW 17 24 9 13 1007.3 1006.8 0.0
03/05:00pm 41.9 37.8 7.8 13 19.8 WSW 19 33 10 18 1007.4 1006.9 0.0
03/04:30pm 41.9 37.8 7.8 13 19.7 WSW 19 30 10 16 1007.3 1006.8 0.0
03/04:00pm 42.8 39.1 9.6 14 19.8 WSW 19 43 10 23 1007.5 1007.0 0.0
03/03:30pm 41.0 37.0 9.2 15 18.7 WSW 20 30 11 16 1007.9 1007.4 0.0
03/03:00pm 40.8 38.1 11.8 18 17.7 W 17 30 9 16 1008.3 1007.8 0.0
03/02:30pm 41.2 38.1 12.1 18 17.8 W 20 35 11 19 1008.7 1008.2 0.0
03/02:00pm 41.0 39.0 12.8 19 17.5 NW 15 26 8 14 1009.1 1008.6 0.0
03/01:30pm 39.6 36.8 13.2 21 16.3 WNW 20 35 11 19 1009.6 1009.0 0.0
03/01:00pm 41.1 37.7 13.7 20 17.2 NNW 24 39 13 21 1009.9 1009.3 0.0
03/12:30pm 39.6 35.8 14.6 23 15.8 NNW 28 41 15 22 1010.3 1009.7 0.0
03/12:07pm 39.4 35.1 14.4 22 15.7 NNW 30 50 16 27 1010.4 1009.8 0.0
03/12:00pm 38.9 34.5 14.0 23 15.6 NNW 30 41 16 22 1010.6 1010.0 0.0
03/11:30am 38.5 35.8 15.6 26 14.6 N 24 39 13 21 1011.0 1010.4 0.0
03/11:00am 37.3 34.1 16.3 29 13.5 N 28 39 15 21 1011.2 1010.6 0.0
03/10:30am 36.0 32.2 15.7 30 12.9 NNE 30 39 16 21 1011.4 1010.8 0.0
03/10:00am 34.8 31.0 15.7 32 12.1 NNE 30 43 16 23 1011.5 1010.9 0.0
03/09:30am 33.2 28.8 15.2 33 11.2 NNE 32 41 17 22 1011.4 1010.8 0.0
03/09:00am 32.1 28.3 14.7 35 10.7 NE 28 35 15 19 1011.6 1011.0 0.0
03/08:30am 30.5 27.1 13.7 35 10.1 NE 24 33 13 18 1011.4 1010.8 0.0
03/08:00am 29.4 26.9 13.6 38 9.5 ENE 19 26 10 14 1011.1 1010.5 0.0
03/07:30am 27.2 24.6 12.0 38 8.8 ENE 17 20 9 11 1010.8 1010.2 0.0
03/07:00am 26.9 24.6 11.8 39 8.7 ENE 15 19 8 10 1010.5 1009.9 0.0
03/06:30am 26.6 24.6 11.5 39 8.6 ENE 13 17 7 9 1010.1 1009.5 0.0
03/06:00am 27.0 25.3 11.1 37 9.1 E 11 13 6 7 1009.9 1009.3 0.0
03/05:30am 27.6 25.4 10.8 35 9.6 E 13 15 7 8 1009.4 1008.9 0.0
03/05:00am 27.9 26.0 10.6 34 9.8 ENE 11 15 6 8 1009.2 1008.7 0.0
03/04:30am 27.7 25.8 10.4 34 9.8 E 11 15 6 8 1009.2 1008.7 0.0
03/04:00am 27.8 26.3 10.5 34 9.8 ENE 9 11 5 6 1008.9 1008.4 0.0
03/03:30am 28.7 26.4 10.4 32 10.4 E 13 17 7 9 1008.8 1008.3 0.0
03/03:00am 29.2 27.4 10.8 32 10.6 E 11 13 6 7 1008.9 1008.4 0.0
03/02:30am 28.6 26.5 9.8 31 10.6 E 11 13 6 7 1009.1 1008.6 0.0
03/02:00am 28.7 26.9 9.4 30 10.8 ESE 9 11 5 6 1009.4 1008.9 0.0
03/01:30am 29.5 27.5 10.1 30 11.0 E 11 13 6 7 1009.4 1008.9 0.0
03/01:00am 29.7 27.5 9.3 28 11.5 ESE 11 13 6 7 1009.7 1009.1 0.0
03/12:30am 31.2 28.6 9.4 26 12.3 SSE 13 15 7 8 1009.6 1009.0 0.0
03/12:00am 31.2 28.3 8.2 24 12.8 SE 13 15 7 8 1009.8 1009.2 0.0
 
Date/Time
EDT
Temp
°C
App
Temp
°C
Dew
Point
Rel
Hum
%
Delta-T
°C
Wind Press
QNH
hPa
Press
MSL
hPa
Rain
since 9 am
mm
Dir
 
Spd
km/h
Gust
km/h
Spd
kts
Gust
kts
02/11:30pm 29.2 27.4 7.2 25 11.9 SSE 6 7 3 4 1009.6 1009.0 0.0
02/11:00pm 30.2 28.4 8.0 25 12.2 S 7 9 4 5 1009.6 1009.0 0.0
02/10:30pm 30.6 28.7 7.7 24 12.6 S 7 9 4 5 1009.3 1008.8 0.0
02/10:00pm 31.0 29.1 7.5 23 12.9 SSE 7 9 4 5 1009.2 1008.7 0.0
02/09:30pm 33.1 30.9 7.9 21 14.0 SSE 9 9 5 5 1008.8 1008.3 0.0

Other Formats:

Comma delimited format used in spreadsheet applications
http://www.bom.gov.au/fwo/IDN60801/IDN60801.94703.axf

JavaScript Object Notation format (JSON) in row-major order
http://www.bom.gov.au/fwo/IDN60801/IDN60801.94703.json